Time;durP1;ratioP1;P1;durP2;ratioP2;P2;SDS_P1;SDS_P2;PMS_P1;PMS_P2;Temp;Humidity;BMP_temperature;BMP_pressure;BME280_temperature;BME280_humidity;BME280_pressure;Samples;Min_cycle;Max_cycle;Signal;HPM_P1;HPM_P2
2022/03/30 00:00:06;;;;;;;8.52;2.33;;;22.50;99.90;;;;;;5061431;28;20191;-85
2022/03/30 00:02:36;;;;;;;8.93;1.83;;;22.50;99.90;;;;;;5073188;28;20208;-82
2022/03/30 00:05:10;;;;;;;7.20;1.80;;;22.60;99.90;;;;;;5077128;28;20641;-85
2022/03/30 00:07:41;;;;;;;10.18;1.90;;;22.70;99.90;;;;;;5070127;28;20192;-78
2022/03/30 00:10:12;;;;;;;8.38;1.52;;;22.60;99.90;;;;;;5070419;28;20189;-84
2022/03/30 00:12:42;;;;;;;8.68;1.88;;;22.50;99.90;;;;;;5077644;28;20185;-85
2022/03/30 00:15:13;;;;;;;11.60;1.60;;;22.40;99.90;;;;;;5088306;28;20561;-85
2022/03/30 00:17:44;;;;;;;4.88;1.65;;;22.40;99.90;;;;;;5070613;28;20633;-84
2022/03/30 00:20:17;;;;;;;11.63;2.08;;;22.50;99.90;;;;;;5071668;28;20193;-86
2022/03/30 00:22:48;;;;;;;11.38;1.90;;;22.60;99.90;;;;;;5070374;28;20679;-83
2022/03/30 00:25:20;;;;;;;9.63;1.90;;;22.80;99.90;;;;;;5059016;28;20197;-87
2022/03/30 00:27:51;;;;;;;10.13;1.73;;;23.00;99.90;;;;;;5069419;28;20185;-84
2022/03/30 00:30:22;;;;;;;11.70;1.80;;;23.10;99.90;;;;;;5072812;28;20557;-82
2022/03/30 00:32:53;;;;;;;11.30;1.70;;;23.00;99.90;;;;;;5074939;28;20242;-87
2022/03/30 00:35:25;;;;;;;6.18;1.50;;;23.00;99.90;;;;;;5071881;28;20975;-87
2022/03/30 00:37:56;;;;;;;6.43;1.85;;;22.90;99.90;;;;;;5080691;28;20212;-87
2022/03/30 00:40:27;;;;;;;7.53;1.70;;;22.90;99.90;;;;;;5071952;28;20194;-85
2022/03/30 00:42:58;;;;;;;8.88;2.17;;;23.00;99.90;;;;;;5071303;28;20216;-83
2022/03/30 00:45:29;;;;;;;6.47;1.73;;;23.00;99.90;;;;;;5072922;28;20239;-77
2022/03/30 00:47:59;;;;;;;6.93;1.85;;;23.00;99.90;;;;;;5075663;28;20188;-82
2022/03/30 00:50:32;;;;;;;8.27;2.15;;;22.90;99.90;;;;;;5086248;28;20193;-78
2022/03/30 00:53:03;;;;;;;8.93;2.08;;;22.90;99.90;;;;;;5070916;28;20196;-86
2022/03/30 00:55:34;;;;;;;11.32;2.10;;;22.80;99.90;;;;;;5081089;28;20185;-82
2022/03/30 00:58:05;;;;;;;9.43;2.38;;;23.00;99.90;;;;;;5078165;28;20196;-79
2022/03/30 01:00:36;;;;;;;9.80;2.40;;;23.20;99.90;;;;;;5073432;28;20200;-82
2022/03/30 01:03:07;;;;;;;13.52;2.10;;;23.40;99.90;;;;;;5076159;28;20627;-77
2022/03/30 01:05:39;;;;;;;11.50;2.17;;;23.60;99.90;;;;;;5070558;28;20193;-77
2022/03/30 01:08:10;;;;;;;9.88;1.98;;;23.70;99.90;;;;;;5071684;28;20189;-76
2022/03/30 01:10:41;;;;;;;10.00;1.83;;;23.70;99.90;;;;;;5071000;28;20200;-74
2022/03/30 01:13:12;;;;;;;6.85;2.00;;;23.60;99.90;;;;;;5067458;28;20599;-76
2022/03/30 01:15:43;;;;;;;8.15;2.28;;;23.40;99.90;;;;;;5078884;28;20694;-74
2022/03/30 01:18:14;;;;;;;8.77;2.58;;;23.20;99.90;;;;;;5074880;28;20191;-86
2022/03/30 01:20:51;;;;;;;9.10;2.17;;;23.10;99.90;;;;;;5077054;28;20207;-84
2022/03/30 01:23:22;;;;;;;8.57;2.28;;;23.00;99.90;;;;;;5074689;28;20232;-83
2022/03/30 01:25:52;;;;;;;5.70;2.03;;;23.10;99.90;;;;;;5077821;28;20192;-75
2022/03/30 01:28:28;;;;;;;5.65;2.00;;;23.20;99.90;;;;;;5071899;28;20547;-77
2022/03/30 01:33:47;;;;;;;5.72;2.17;;;22.70;99.90;;;;;;5075333;28;20191;-83
2022/03/30 01:36:22;;;;;;;5.65;2.15;;;22.50;99.90;;;;;;5070712;28;20224;-80
2022/03/30 01:38:52;;;;;;;6.32;2.25;;;22.40;99.90;;;;;;5073935;28;20584;-81
2022/03/30 01:41:23;;;;;;;7.95;2.47;;;22.30;99.90;;;;;;5075213;28;20188;-80
2022/03/30 01:43:54;;;;;;;6.40;2.70;;;22.30;99.90;;;;;;5064571;28;20220;-82
2022/03/30 01:46:25;;;;;;;7.22;2.45;;;22.30;99.90;;;;;;5065869;28;20203;-81
2022/03/30 01:48:55;;;;;;;6.22;2.50;;;22.30;99.90;;;;;;5062371;28;20185;-81
2022/03/30 01:51:28;;;;;;;11.25;2.40;;;22.30;99.90;;;;;;5082227;28;20188;-81
2022/03/30 01:53:58;;;;;;;4.18;1.70;;;22.20;99.90;;;;;;5075058;28;20185;-81
2022/03/30 01:56:29;;;;;;;5.38;1.70;;;22.10;99.90;;;;;;5074506;28;20189;-81
2022/03/30 01:59:00;;;;;;;7.53;1.80;;;21.90;99.90;;;;;;5080110;28;20184;-81
2022/03/30 02:01:30;;;;;;;6.90;2.30;;;22.10;99.90;;;;;;5077788;28;20193;-79
2022/03/30 02:04:01;;;;;;;8.05;2.00;;;22.10;99.90;;;;;;5072791;28;20216;-76
2022/03/30 02:06:34;;;;;;;7.95;2.42;;;22.20;99.90;;;;;;5079459;28;20702;-81
2022/03/30 02:09:05;;;;;;;6.38;2.00;;;22.40;99.90;;;;;;5078971;28;20627;-76
2022/03/30 02:11:37;;;;;;;3.33;1.80;;;22.70;99.90;;;;;;5083006;28;20555;-82
2022/03/30 02:14:08;;;;;;;5.78;2.20;;;22.90;99.90;;;;;;5079021;28;20207;-78
2022/03/30 02:16:38;;;;;;;4.80;2.10;;;23.00;99.90;;;;;;5077924;28;20251;-81
2022/03/30 02:19:09;;;;;;;6.05;2.10;;;23.10;99.90;;;;;;5074040;28;20571;-86
2022/03/30 02:21:42;;;;;;;3.45;1.80;;;23.20;99.90;;;;;;5074377;28;20193;-82
2022/03/30 02:24:12;;;;;;;6.25;2.33;;;23.10;99.90;;;;;;5086113;28;20204;-74
2022/03/30 02:26:43;;;;;;;4.05;1.80;;;23.20;99.90;;;;;;5074521;28;20181;-77
2022/03/30 02:29:14;;;;;;;3.47;1.50;;;23.20;99.90;;;;;;5068155;28;20189;-80
2022/03/30 02:31:44;;;;;;;8.93;2.15;;;23.30;99.90;;;;;;5072255;28;20238;-79
2022/03/30 02:34:15;;;;;;;7.18;1.90;;;23.30;99.90;;;;;;5079159;28;20276;-81
2022/03/30 02:36:48;;;;;;;6.68;1.90;;;23.50;99.90;;;;;;5077364;28;20186;-86
2022/03/30 02:39:19;;;;;;;5.38;1.90;;;23.60;99.90;;;;;;5078481;28;20699;-80
2022/03/30 02:41:50;;;;;;;5.82;2.10;;;23.70;99.90;;;;;;5063355;28;20250;-82
2022/03/30 02:44:20;;;;;;;7.00;2.03;;;23.70;99.90;;;;;;5072366;28;20266;-78
2022/03/30 02:46:51;;;;;;;5.70;1.90;;;23.70;99.90;;;;;;5072927;28;20193;-80
2022/03/30 02:49:22;;;;;;;6.05;2.47;;;23.60;99.90;;;;;;5080798;28;20550;-82
2022/03/30 02:51:54;;;;;;;8.60;2.20;;;23.60;99.90;;;;;;5085183;28;20202;-77
2022/03/30 02:54:26;;;;;;;6.30;2.00;;;23.60;99.90;;;;;;5075162;28;20189;-77
2022/03/30 02:56:57;;;;;;;8.85;2.90;;;23.70;99.90;;;;;;5084585;28;20192;-84
2022/03/30 02:59:27;;;;;;;8.77;2.35;;;23.90;99.90;;;;;;5079967;28;20604;-79
2022/03/30 03:01:59;;;;;;;3.97;1.80;;;24.00;99.90;;;;;;5079807;28;20218;-77
2022/03/30 03:04:31;;;;;;;7.28;2.08;;;24.00;99.90;;;;;;5076111;28;20294;-80
2022/03/30 03:07:04;;;;;;;5.28;1.98;;;24.00;99.90;;;;;;5077696;28;20185;-75
2022/03/30 03:09:35;;;;;;;5.40;2.08;;;24.00;99.90;;;;;;5084597;28;20234;-76
2022/03/30 03:12:05;;;;;;;8.57;2.45;;;24.00;99.90;;;;;;5078343;28;20559;-76
2022/03/30 03:14:36;;;;;;;6.13;1.80;;;23.90;99.90;;;;;;5072859;28;20716;-77
2022/03/30 03:17:07;;;;;;;5.75;1.65;;;23.80;99.90;;;;;;5068353;28;20197;-76
2022/03/30 03:19:38;;;;;;;5.72;1.90;;;23.70;99.90;;;;;;5066717;28;20197;-75
2022/03/30 03:22:11;;;;;;;6.10;2.08;;;23.70;99.90;;;;;;5064622;28;20190;-76
2022/03/30 03:24:42;;;;;;;4.15;1.73;;;23.70;99.90;;;;;;5058382;28;20262;-81
2022/03/30 03:27:12;;;;;;;5.57;1.80;;;23.60;99.90;;;;;;5072000;28;20185;-79
2022/03/30 03:29:43;;;;;;;4.53;1.60;;;23.60;99.90;;;;;;5066814;28;20559;-76
2022/03/30 03:32:14;;;;;;;6.53;1.75;;;23.60;99.90;;;;;;5071997;28;20243;-80
2022/03/30 03:34:45;;;;;;;4.38;1.40;;;23.70;99.90;;;;;;5070949;28;20740;-86
2022/03/30 03:37:18;;;;;;;5.20;1.27;;;23.50;99.90;;;;;;5073779;28;20192;-88
2022/03/30 03:39:49;;;;;;;3.45;1.33;;;23.50;99.90;;;;;;5070443;28;20228;-87
2022/03/30 03:42:21;;;;;;;4.18;1.40;;;23.60;99.90;;;;;;5074212;28;20571;-87
2022/03/30 03:44:51;;;;;;;4.68;1.40;;;23.60;99.90;;;;;;5082617;28;20216;-88
2022/03/30 03:47:22;;;;;;;3.60;1.33;;;23.70;99.90;;;;;;5072209;28;20189;-87
2022/03/30 03:49:53;;;;;;;4.70;1.70;;;23.70;99.90;;;;;;5072145;28;20276;-89
2022/03/30 03:52:25;;;;;;;4.55;1.42;;;23.90;99.90;;;;;;5073651;28;20181;-89
2022/03/30 03:54:56;;;;;;;5.47;1.80;;;24.00;99.90;;;;;;5074372;28;20594;-88
2022/03/30 03:57:27;;;;;;;4.10;1.58;;;24.10;99.90;;;;;;5082339;28;20238;-89
2022/03/30 03:59:57;;;;;;;5.00;2.00;;;24.10;99.90;;;;;;5077706;28;20185;-87
2022/03/30 04:02:28;;;;;;;6.38;1.83;;;24.00;99.90;;;;;;5076669;28;20189;-90
2022/03/30 04:04:59;;;;;;;4.75;1.70;;;24.00;99.90;;;;;;5067776;28;20217;-91
2022/03/30 04:07:32;;;;;;;3.50;1.80;;;24.00;99.90;;;;;;5069742;28;20691;-89
2022/03/30 04:10:03;;;;;;;5.13;1.80;;;23.90;99.90;;;;;;5069326;28;20197;-79
2022/03/30 04:12:34;;;;;;;3.60;1.80;;;23.90;99.90;;;;;;5070656;28;20189;-89
2022/03/30 04:15:04;;;;;;;4.25;1.60;;;23.80;99.90;;;;;;5073949;28;20246;-88
2022/03/30 04:17:35;;;;;;;3.28;1.80;;;23.80;99.90;;;;;;5072887;28;20223;-90
2022/03/30 04:20:06;;;;;;;2.97;1.90;;;23.70;99.90;;;;;;5080949;28;20241;-87
2022/03/30 04:22:39;;;;;;;4.80;2.10;;;23.60;99.90;;;;;;5075454;28;20181;-89
2022/03/30 04:25:10;;;;;;;3.55;1.83;;;23.60;99.90;;;;;;5076209;28;20208;-88
2022/03/30 04:27:48;;;;;;;3.63;2.00;;;23.50;99.90;;;;;;5079316;28;20640;-87
2022/03/30 04:30:19;;;;;;;3.15;2.20;;;23.50;99.90;;;;;;5074599;28;20185;-89
2022/03/30 04:32:50;;;;;;;5.07;2.58;;;23.40;99.90;;;;;;5084426;28;20188;-88
2022/03/30 04:35:25;;;;;;;2.92;1.95;;;23.50;99.90;;;;;;5075210;28;20246;-89
2022/03/30 04:37:58;;;;;;;3.40;2.00;;;23.40;99.90;;;;;;5077561;28;20185;-88
2022/03/30 04:40:31;;;;;;;6.28;1.90;;;23.40;99.90;;;;;;5081663;28;20659;-91
2022/03/30 04:43:02;;;;;;;3.60;1.85;;;23.30;99.90;;;;;;5076238;28;20216;-87
2022/03/30 04:45:33;;;;;;;4.82;1.60;;;23.30;99.90;;;;;;5076174;28;20189;-90
2022/03/30 04:48:03;;;;;;;5.60;1.40;;;23.30;99.90;;;;;;5084124;28;20189;-86
2022/03/30 04:50:34;;;;;;;3.08;1.52;;;23.30;99.90;;;;;;5070671;28;20237;-84
2022/03/30 04:53:07;;;;;;;7.45;1.80;;;23.40;99.90;;;;;;5074995;28;20286;-90
2022/03/30 04:55:38;;;;;;;7.07;1.90;;;23.40;99.90;;;;;;5064808;28;20192;-91
2022/03/30 04:58:09;;;;;;;4.90;1.10;;;23.50;99.90;;;;;;5072839;28;20287;-88
2022/03/30 05:00:41;;;;;;;2.97;1.13;;;23.60;99.90;;;;;;5066386;28;20204;-90
2022/03/30 05:03:15;;;;;;;4.13;1.45;;;23.60;99.90;;;;;;5074539;28;20640;-91
2022/03/30 05:05:46;;;;;;;6.32;1.50;;;23.60;99.90;;;;;;5075964;28;20192;-91
2022/03/30 05:08:18;;;;;;;5.57;1.50;;;23.70;99.90;;;;;;5079301;28;20228;-90
2022/03/30 05:10:50;;;;;;;3.92;1.40;;;23.60;99.90;;;;;;5078124;28;20188;-90
2022/03/30 05:13:20;;;;;;;6.57;1.58;;;23.60;99.90;;;;;;5077396;28;20644;-90
2022/03/30 05:15:51;;;;;;;3.15;1.40;;;23.50;99.90;;;;;;5084470;28;20185;-92
2022/03/30 05:18:22;;;;;;;4.63;1.38;;;23.50;99.90;;;;;;5080593;28;20182;-90
2022/03/30 05:20:53;;;;;;;5.80;1.35;;;23.40;99.90;;;;;;5072604;28;20189;-89
2022/03/30 05:23:26;;;;;;;8.82;1.95;;;23.40;99.90;;;;;;5071031;28;20279;-89
2022/03/30 05:25:56;;;;;;;4.65;1.63;;;23.30;99.90;;;;;;5071813;28;20193;-83
2022/03/30 05:28:27;;;;;;;6.07;1.80;;;23.20;99.90;;;;;;5076694;28;20701;-85
2022/03/30 05:30:58;;;;;;;6.97;1.65;;;23.10;99.90;;;;;;5075622;28;20193;-80
2022/03/30 05:33:28;;;;;;;6.93;2.05;;;23.00;99.90;;;;;;5085065;28;20189;-76
2022/03/30 05:35:59;;;;;;;7.53;1.80;;;22.90;99.90;;;;;;5073363;28;20746;-79
2022/03/30 05:38:32;;;;;;;7.45;1.80;;;22.90;99.90;;;;;;5067982;28;20236;-80
2022/03/30 05:41:04;;;;;;;3.78;1.95;;;22.80;99.90;;;;;;5066393;28;20596;-80
2022/03/30 05:43:35;;;;;;;5.13;2.05;;;22.80;99.90;;;;;;5066467;28;20194;-77
2022/03/30 05:46:05;;;;;;;5.35;2.03;;;22.70;99.90;;;;;;5070075;28;20660;-78
2022/03/30 05:48:36;;;;;;;6.18;2.20;;;22.70;99.90;;;;;;5075887;28;20196;-77
2022/03/30 05:51:07;;;;;;;5.68;1.98;;;22.60;99.90;;;;;;5073369;28;20195;-79
2022/03/30 05:53:39;;;;;;;4.07;1.75;;;22.60;99.90;;;;;;5072130;28;20181;-81
2022/03/30 05:56:10;;;;;;;3.42;1.40;;;22.50;99.90;;;;;;5074915;28;20235;-81
2022/03/30 05:58:41;;;;;;;3.95;1.30;;;22.40;99.90;;;;;;5069068;28;20190;-81
2022/03/30 06:01:11;;;;;;;8.25;1.70;;;22.40;99.90;;;;;;5071196;28;20197;-77
2022/03/30 06:03:42;;;;;;;4.32;1.40;;;22.40;99.90;;;;;;5068139;28;20274;-77
2022/03/30 06:06:14;;;;;;;6.55;1.55;;;22.30;99.90;;;;;;5076995;28;20182;-78
2022/03/30 06:08:46;;;;;;;3.67;1.20;;;22.30;99.90;;;;;;5073485;28;20271;-76
2022/03/30 06:11:17;;;;;;;4.32;1.40;;;22.30;99.90;;;;;;5075126;28;20203;-74
2022/03/30 06:13:48;;;;;;;3.45;1.45;;;22.30;99.90;;;;;;5078912;28;20632;-80
2022/03/30 06:16:19;;;;;;;3.03;1.30;;;22.20;99.90;;;;;;5084537;28;20180;-74
2022/03/30 06:18:49;;;;;;;4.15;1.25;;;22.40;99.90;;;;;;5073686;28;20197;-79
2022/03/30 06:21:20;;;;;;;3.90;1.23;;;22.30;99.90;;;;;;5062654;28;20197;-83
2022/03/30 06:23:54;;;;;;;2.88;1.20;;;22.40;99.90;;;;;;5069672;28;20277;-74
2022/03/30 06:26:25;;;;;;;2.65;1.30;;;22.40;99.90;;;;;;5082667;28;21541;-77
2022/03/30 06:28:56;;;;;;;3.42;1.50;;;22.50;99.90;;;;;;5065289;28;20306;-76
2022/03/30 06:31:27;;;;;;;2.88;1.20;;;22.50;99.90;;;;;;5064591;28;20193;-73
2022/03/30 06:33:57;;;;;;;5.13;1.38;;;22.60;99.90;;;;;;5069782;28;20285;-75
2022/03/30 06:36:28;;;;;;;3.17;1.38;;;22.50;99.90;;;;;;5060807;28;20655;-77
2022/03/30 06:39:02;;;;;;;4.30;1.38;;;22.50;99.90;;;;;;5062516;28;20232;-81
2022/03/30 06:41:32;;;;;;;1.30;1.02;;;22.40;99.90;;;;;;5065558;28;20193;-79
2022/03/30 06:44:03;;;;;;;3.28;1.50;;;22.30;99.90;;;;;;5057817;28;20212;-84
2022/03/30 06:46:38;;;;;;;2.75;1.20;;;22.30;99.90;;;;;;5060052;28;20216;-86
2022/03/30 06:49:09;;;;;;;3.42;1.30;;;22.20;99.90;;;;;;5059310;28;20599;-88
2022/03/30 06:51:40;;;;;;;2.10;1.20;;;22.10;99.90;;;;;;5065234;28;20221;-87
2022/03/30 06:54:13;;;;;;;2.10;1.50;;;22.10;99.90;;;;;;5065367;28;20193;-79
2022/03/30 06:56:44;;;;;;;3.30;1.50;;;22.00;99.90;;;;;;5068554;28;20220;-79
2022/03/30 06:59:14;;;;;;;2.45;1.40;;;21.90;99.90;;;;;;5061545;28;20201;-79
2022/03/30 07:01:45;;;;;;;1.70;1.27;;;21.80;99.90;;;;;;5064756;28;20193;-90
2022/03/30 07:04:16;;;;;;;2.78;1.38;;;21.80;99.90;;;;;;5059477;28;20213;-88
2022/03/30 07:12:18;;;;;;;2.20;1.33;;;21.70;99.90;;;;;;5065833;28;20243;-84
2022/03/30 07:14:49;;;;;;;2.28;1.55;;;21.60;99.90;;;;;;5062748;28;20259;-85
2022/03/30 07:17:20;;;;;;;3.03;1.58;;;21.60;99.90;;;;;;5057666;28;20229;-79
2022/03/30 07:19:52;;;;;;;2.97;1.55;;;21.60;99.90;;;;;;5071472;28;20681;-75
2022/03/30 07:22:22;;;;;;;4.43;1.70;;;21.50;99.90;;;;;;5065017;28;20201;-80
2022/03/30 07:24:55;;;;;;;2.50;1.67;;;21.50;99.90;;;;;;5064912;28;20266;-77
2022/03/30 07:27:25;;;;;;;3.15;1.80;;;21.40;99.90;;;;;;5069846;28;20189;-75
2022/03/30 07:29:56;;;;;;;3.83;2.30;;;21.30;99.90;;;;;;5079170;28;20181;-79
2022/03/30 07:32:27;;;;;;;4.18;2.10;;;21.30;99.90;;;;;;5077299;28;20235;-79
2022/03/30 07:34:58;;;;;;;4.38;2.47;;;21.30;99.90;;;;;;5073759;28;20228;-78
2022/03/30 07:37:28;;;;;;;3.22;2.40;;;21.20;99.90;;;;;;5080957;28;20189;-75
2022/03/30 07:40:02;;;;;;;5.88;2.58;;;21.20;99.90;;;;;;5079457;28;20225;-74
2022/03/30 07:42:36;;;;;;;2.92;2.30;;;21.10;99.90;;;;;;5075695;28;20191;-81
2022/03/30 07:45:08;;;;;;;3.72;2.50;;;21.10;99.90;;;;;;5084249;28;20217;-82
2022/03/30 07:47:39;;;;;;;3.63;2.40;;;21.10;99.90;;;;;;5072379;28;20640;-76
2022/03/30 07:50:10;;;;;;;4.28;2.40;;;21.10;99.90;;;;;;5080326;28;20193;-77
2022/03/30 07:52:42;;;;;;;6.68;2.63;;;21.00;99.90;;;;;;5076432;28;20656;-77
2022/03/30 07:55:15;;;;;;;3.85;2.42;;;21.00;99.90;;;;;;5082078;28;20193;-78
2022/03/30 07:57:46;;;;;;;5.43;2.67;;;21.00;99.90;;;;;;5082749;28;20249;-88
2022/03/30 08:00:18;;;;;;;5.03;2.80;;;20.90;99.90;;;;;;5080765;28;20188;-90
2022/03/30 08:02:49;;;;;;;6.05;3.03;;;20.90;99.90;;;;;;5075440;28;20199;-80
2022/03/30 08:05:21;;;;;;;5.13;2.75;;;20.70;99.90;;;;;;5066577;28;20213;-86
2022/03/30 08:07:51;;;;;;;6.25;2.85;;;20.80;99.90;;;;;;5077045;28;20185;-82
2022/03/30 08:10:24;;;;;;;5.93;2.70;;;20.70;99.90;;;;;;5078481;28;20180;-90
2022/03/30 08:12:55;;;;;;;5.82;2.80;;;20.70;99.90;;;;;;5081009;28;20185;-79
2022/03/30 08:15:25;;;;;;;6.43;2.80;;;20.70;99.90;;;;;;5079387;28;20201;-82
2022/03/30 08:17:56;;;;;;;6.53;2.55;;;20.60;99.90;;;;;;5077222;28;20185;-84
2022/03/30 08:23:17;;;;;;;4.53;2.10;;;20.50;99.90;;;;;;5081102;28;20196;-83
2022/03/30 08:25:49;;;;;;;4.47;2.10;;;20.50;99.90;;;;;;5077831;28;20216;-89
2022/03/30 08:28:20;;;;;;;5.65;1.85;;;20.50;99.90;;;;;;5076946;28;20181;-87
2022/03/30 08:30:51;;;;;;;4.18;1.85;;;20.50;99.90;;;;;;5078057;28;20200;-89
2022/03/30 08:33:26;;;;;;;3.63;1.50;;;20.40;99.90;;;;;;5078064;28;20548;-88
2022/03/30 08:35:57;;;;;;;3.35;1.67;;;20.40;99.90;;;;;;5077569;28;20632;-87
2022/03/30 08:38:28;;;;;;;3.05;1.60;;;20.40;99.90;;;;;;5083826;28;20235;-89
2022/03/30 08:41:01;;;;;;;3.08;1.40;;;20.40;99.90;;;;;;5074605;28;20212;-91
2022/03/30 08:43:32;;;;;;;5.65;1.60;;;20.40;99.90;;;;;;5084813;28;20189;-89
2022/03/30 08:46:03;;;;;;;7.10;1.45;;;20.40;99.90;;;;;;5075339;28;20268;-84
2022/03/30 08:48:34;;;;;;;5.50;1.50;;;20.40;99.90;;;;;;5076218;28;20189;-88
2022/03/30 08:51:04;;;;;;;3.95;1.45;;;20.40;99.90;;;;;;5080935;28;20189;-84
2022/03/30 08:53:35;;;;;;;6.63;1.80;;;20.40;99.90;;;;;;5077198;28;20181;-87
2022/03/30 08:56:08;;;;;;;6.65;1.63;;;20.40;99.90;;;;;;5074765;28;20199;-89
2022/03/30 08:58:39;;;;;;;4.10;1.50;;;20.40;99.90;;;;;;5078894;28;20207;-89
2022/03/30 09:01:13;;;;;;;2.53;1.45;;;20.40;99.90;;;;;;5080422;28;20192;-88
2022/03/30 09:03:59;;;;;;;3.95;1.40;;;20.40;99.90;;;;;;5073393;28;20267;-88
2022/03/30 09:06:37;;;;;;;3.38;1.30;;;20.40;99.90;;;;;;5075405;28;20212;-86
2022/03/30 09:09:08;;;;;;;3.75;1.40;;;20.40;99.90;;;;;;5072655;28;20193;-86
2022/03/30 09:11:53;;;;;;;2.60;1.30;;;20.40;99.90;;;;;;5081671;28;20185;-86
2022/03/30 09:14:25;;;;;;;3.80;1.70;;;20.40;99.90;;;;;;5068092;28;20272;-83
2022/03/30 09:16:56;;;;;;;3.17;1.40;;;20.30;99.90;;;;;;5078934;28;20184;-88
2022/03/30 09:19:28;;;;;;;6.65;1.30;;;20.30;99.90;;;;;;5078755;28;20207;-87
2022/03/30 09:22:01;;;;;;;3.60;1.15;;;20.30;99.90;;;;;;5073792;28;20185;-82
2022/03/30 09:24:34;;;;;;;5.05;1.48;;;20.30;99.90;;;;;;5077845;28;20188;-88
2022/03/30 09:27:08;;;;;;;2.63;1.20;;;20.20;99.90;;;;;;5080386;28;20192;-87
2022/03/30 09:29:40;;;;;;;6.93;1.40;;;20.30;99.90;;;;;;5085359;28;20191;-87
2022/03/30 09:32:11;;;;;;;3.63;1.15;;;20.30;99.90;;;;;;5081167;28;20197;-83
2022/03/30 09:34:51;;;;;;;5.18;1.40;;;20.20;99.90;;;;;;5068059;28;20220;-87
2022/03/30 09:37:22;;;;;;;2.83;1.30;;;20.20;99.90;;;;;;5069421;28;20234;-88
2022/03/30 09:39:53;;;;;;;3.75;1.35;;;20.20;99.90;;;;;;5072002;28;20620;-89
2022/03/30 09:42:30;;;;;;;4.00;1.30;;;20.30;99.90;;;;;;5082207;28;20189;-88
2022/03/30 09:45:01;;;;;;;5.95;1.50;;;20.30;99.90;;;;;;5074820;28;20204;-86
2022/03/30 09:47:41;;;;;;;7.32;1.70;;;20.30;99.90;;;;;;5071074;28;20185;-88
2022/03/30 09:50:12;;;;;;;4.82;1.60;;;20.30;99.90;;;;;;5070420;28;20257;-85
2022/03/30 09:52:44;;;;;;;4.13;1.48;;;20.20;99.90;;;;;;5073376;28;20185;-89
2022/03/30 09:55:15;;;;;;;4.20;1.50;;;20.20;99.90;;;;;;5076675;28;20189;-88
2022/03/30 09:57:50;;;;;;;4.85;1.80;;;20.20;99.90;;;;;;5076143;28;20211;-88
2022/03/30 10:00:22;;;;;;;7.63;1.65;;;20.10;99.90;;;;;;5075141;28;20234;-87
2022/03/30 10:02:53;;;;;;;7.40;1.95;;;20.10;99.90;;;;;;5074573;28;20204;-86
2022/03/30 10:05:25;;;;;;;4.38;2.00;;;20.10;99.90;;;;;;5073498;28;20212;-85
2022/03/30 10:07:56;;;;;;;7.63;2.60;;;20.10;99.90;;;;;;5074249;28;20189;-85
2022/03/30 10:10:27;;;;;;;5.55;2.28;;;20.10;99.90;;;;;;5071410;28;20636;-82
2022/03/30 10:13:00;;;;;;;8.75;2.47;;;20.10;99.90;;;;;;5067309;28;20234;-84
2022/03/30 10:15:31;;;;;;;7.35;2.30;;;20.10;99.90;;;;;;5072954;28;20192;-78
2022/03/30 10:18:02;;;;;;;8.35;2.60;;;20.10;99.90;;;;;;5086469;28;20640;-86
2022/03/30 10:20:33;;;;;;;10.70;2.67;;;20.10;99.90;;;;;;5067225;28;20195;-85
2022/03/30 10:23:23;;;;;;;12.73;2.90;;;20.10;99.90;;;;;;5078327;28;20251;-84
2022/03/30 10:26:10;;;;;;;10.82;2.70;;;20.10;99.90;;;;;;5074416;28;20212;-87
2022/03/30 10:29:15;;;;;;;13.15;3.00;;;20.10;99.90;;;;;;5070094;28;20281;-86
2022/03/30 10:32:11;;;;;;;9.93;2.95;;;20.20;99.90;;;;;;5066516;28;20202;-86
2022/03/30 10:34:53;;;;;;;10.85;2.92;;;20.10;99.90;;;;;;5071002;28;20213;-85
2022/03/30 10:37:31;;;;;;;10.23;2.67;;;20.20;99.90;;;;;;5080567;28;20666;-82
2022/03/30 10:40:10;;;;;;;8.48;2.70;;;20.10;99.90;;;;;;5071053;28;20237;-81
2022/03/30 10:43:02;;;;;;;11.05;2.70;;;20.10;99.90;;;;;;5067321;28;20687;-76
2022/03/30 10:45:51;;;;;;;11.00;2.92;;;20.10;99.90;;;;;;5063787;28;20254;-81
2022/03/30 10:48:25;;;;;;;12.80;3.00;;;20.10;99.90;;;;;;5065424;28;20189;-83
2022/03/30 10:50:57;;;;;;;11.48;3.20;;;20.10;99.90;;;;;;5072672;28;20640;-78
2022/03/30 10:53:48;;;;;;;12.98;3.60;;;20.10;99.90;;;;;;5071929;28;20185;-82
2022/03/30 10:56:36;;;;;;;11.27;3.88;;;20.00;99.90;;;;;;5067190;28;20272;-81
2022/03/30 10:59:11;;;;;;;12.73;3.83;;;20.00;99.90;;;;;;5073886;28;20246;-79
2022/03/30 11:01:43;;;;;;;13.23;4.35;;;20.00;99.90;;;;;;5073361;28;20188;-83
2022/03/30 11:04:27;;;;;;;10.68;4.00;;;19.90;99.90;;;;;;5075137;28;20613;-82
2022/03/30 11:07:41;;;;;;;8.25;3.70;;;20.00;99.90;;;;;;5078724;28;20216;-79
2022/03/30 11:10:31;;;;;;;11.25;3.85;;;19.90;99.90;;;;;;5085318;28;20192;-82
2022/03/30 11:13:11;;;;;;;9.35;3.50;;;20.00;99.90;;;;;;5074214;28;20189;-83
2022/03/30 11:16:07;;;;;;;7.05;3.00;;;19.90;99.90;;;;;;5071223;28;20192;-84
2022/03/30 11:18:54;;;;;;;10.40;3.67;;;19.90;99.90;;;;;;5083907;28;20185;-82
2022/03/30 11:21:28;;;;;;;6.72;2.95;;;20.00;99.90;;;;;;5076410;28;20185;-83
2022/03/30 11:24:20;;;;;;;7.00;3.15;;;19.90;99.90;;;;;;5077153;28;20201;-83
2022/03/30 11:27:24;;;;;;;5.60;2.80;;;19.80;99.90;;;;;;5071412;28;20211;-82
2022/03/30 11:29:56;;;;;;;10.38;3.38;;;19.90;99.90;;;;;;5080610;28;20204;-83
2022/03/30 11:32:55;;;;;;;10.63;3.30;;;19.90;99.90;;;;;;5077279;28;20238;-83
2022/03/30 11:35:28;;;;;;;10.85;3.58;;;19.90;99.90;;;;;;5082771;28;20244;-81
2022/03/30 11:38:21;;;;;;;12.40;3.90;;;19.90;99.90;;;;;;5084053;28;20565;-84
2022/03/30 11:41:08;;;;;;;14.23;4.00;;;19.90;99.90;;;;;;5068506;28;20235;-84
2022/03/30 11:46:28;;;;;;;13.77;4.10;;;19.90;99.90;;;;;;5070764;28;20292;-84
2022/03/30 11:49:03;;;;;;;8.57;3.42;;;19.80;99.90;;;;;;5074232;28;20576;-82
2022/03/30 11:51:36;;;;;;;6.70;3.67;;;19.80;99.90;;;;;;5074352;28;20184;-82
2022/03/30 11:54:19;;;;;;;6.68;3.33;;;19.80;99.90;;;;;;5073118;28;20220;-82
2022/03/30 11:56:54;;;;;;;8.88;3.38;;;19.80;99.90;;;;;;5071801;28;20196;-79
2022/03/30 11:59:24;;;;;;;9.77;3.13;;;19.70;99.90;;;;;;5072232;28;20193;-85
2022/03/30 12:01:56;;;;;;;6.72;3.45;;;19.70;99.90;;;;;;5073250;28;20184;-84
2022/03/30 12:04:34;;;;;;;11.15;3.33;;;19.70;99.90;;;;;;5068319;28;20180;-80
2022/03/30 12:07:04;;;;;;;9.65;3.22;;;19.70;99.90;;;;;;5074181;28;20227;-82
2022/03/30 12:09:45;;;;;;;7.43;3.10;;;19.70;99.90;;;;;;5074758;28;20242;-81
2022/03/30 12:12:26;;;;;;;7.07;2.90;;;19.60;99.90;;;;;;5080728;28;20208;-79
2022/03/30 12:15:01;;;;;;;7.65;3.25;;;19.70;99.90;;;;;;5070486;28;20224;-80
2022/03/30 12:17:32;;;;;;;6.88;2.92;;;19.60;99.90;;;;;;5078743;28;20203;-81
2022/03/30 12:20:03;;;;;;;8.77;3.10;;;19.60;99.90;;;;;;5073737;28;20185;-82
2022/03/30 12:22:34;;;;;;;7.35;3.00;;;19.60;99.90;;;;;;5079144;28;20189;-81
2022/03/30 12:25:18;;;;;;;7.45;2.53;;;19.60;99.90;;;;;;5079757;28;20633;-80
2022/03/30 12:27:48;;;;;;;6.90;2.75;;;19.50;99.90;;;;;;5073274;28;20699;-79
2022/03/30 12:30:19;;;;;;;4.85;2.60;;;19.50;99.90;;;;;;5085547;28;20526;-77
2022/03/30 12:32:50;;;;;;;4.38;2.20;;;19.50;99.90;;;;;;5073060;28;20198;-81
2022/03/30 12:35:21;;;;;;;4.78;2.20;;;19.40;99.90;;;;;;5077992;28;20262;-81
2022/03/30 12:37:54;;;;;;;5.70;1.80;;;19.30;99.90;;;;;;5075372;28;20649;-80
2022/03/30 12:40:27;;;;;;;5.97;2.00;;;19.30;99.90;;;;;;5071130;28;20600;-79
2022/03/30 12:43:03;;;;;;;7.47;2.30;;;19.30;99.90;;;;;;5079137;28;20599;-83
2022/03/30 12:45:34;;;;;;;8.02;2.00;;;19.20;99.90;;;;;;5076904;28;20189;-81
2022/03/30 12:48:11;;;;;;;6.13;2.53;;;19.20;99.90;;;;;;5077354;28;20212;-78
2022/03/30 12:50:44;;;;;;;8.02;2.67;;;19.20;99.90;;;;;;5083278;28;20192;-79
2022/03/30 12:53:20;;;;;;;12.50;3.10;;;19.20;99.90;;;;;;5070951;28;20189;-79
2022/03/30 12:55:53;;;;;;;4.38;2.40;;;19.20;99.90;;;;;;5077173;28;20188;-79
2022/03/30 12:58:24;;;;;;;5.10;2.20;;;19.20;99.90;;;;;;5079312;28;20667;-78
2022/03/30 13:00:56;;;;;;;6.90;1.80;;;19.20;99.90;;;;;;5071684;28;20186;-81
2022/03/30 13:03:30;;;;;;;4.72;2.00;;;19.10;99.90;;;;;;5076194;28;20200;-80
2022/03/30 13:06:08;;;;;;;6.60;2.17;;;19.10;99.90;;;;;;5074336;28;20694;-78
2022/03/30 13:08:39;;;;;;;9.98;3.05;;;19.10;99.90;;;;;;5075664;28;20185;-78
2022/03/30 13:11:12;;;;;;;13.98;3.17;;;19.20;99.90;;;;;;5074879;28;20193;-77
2022/03/30 13:13:43;;;;;;;14.65;3.13;;;19.20;99.90;;;;;;5078690;28;20185;-78
2022/03/30 13:16:17;;;;;;;14.90;2.97;;;19.30;99.90;;;;;;5073776;28;20209;-77
2022/03/30 13:19:04;;;;;;;15.55;3.08;;;19.30;99.90;;;;;;5073804;28;20185;-76
2022/03/30 13:21:40;;;;;;;16.52;3.00;;;19.30;99.90;;;;;;5079550;28;20189;-79
2022/03/30 13:24:15;;;;;;;11.05;3.03;;;19.30;99.90;;;;;;5079099;28;20193;-77
2022/03/30 13:26:55;;;;;;;11.05;2.83;;;19.30;99.90;;;;;;5072964;28;20208;-78
2022/03/30 13:29:26;;;;;;;11.68;2.80;;;19.30;99.90;;;;;;5074634;28;20192;-86